»·PEaware :: N175EX KSBD-KEMT

N175EX :: KSBD-KEMT

FLIGHT INFORMATION

Flight Status: Arrived
Operator: Privately registered:
United States
More flights under this callsign
Pilot: Stephan C. (33812)
Aircraft: CESSNA 172 SKYHAWK
(C172)
More flights by this aircraft type
Origin: KSBD San Bernardino Intl
United States
Destination: KEMT El Monte
United States
More flights between these airports :: More routes between these airports
Route:
File this flight plan on PilotEdge
Remarks:
Altitude:
(Current/Filed)
2,500ft
Speed:
(Current/Filed)
110kts
Departed: 21-Feb-21 09:49 PM
Arrived: 21-Feb-21 10:16 PM
Distance/Time
Traveled:
6737nm/0:27
Distance/Time
To Go:
Arrived

Flight Plot

Page will automatically refresh every two minutes.


Map Options




Map Legend


Flown Route
Filed Route
Departure Airport
Arrival Airport
Navaid (VOR, NDB)
Fix

Horizontal Profiles

Position Reports

Time Latitude Longitude Heading Altitude Ground
Speed
21-Feb-21 21:30 34.102406 -117.225107 270 1153ft 0kts
21-Feb-21 21:31 34.102406 -117.225107 270 1153ft 0kts
21-Feb-21 21:32 34.102406 -117.225107 270 1153ft 0kts
21-Feb-21 21:33 34.102406 -117.225107 270 1153ft 0kts
21-Feb-21 21:34 34.102406 -117.225107 270 1153ft 0kts
21-Feb-21 21:35 34.102406 -117.225107 270 1153ft 0kts
21-Feb-21 21:36 34.101025 -117.225005 210 1152ft 12kts
21-Feb-21 21:37 34.099754 -117.226705 225 1145ft 6kts
21-Feb-21 21:38 34.098764 -117.229653 251 1139ft 12kts
21-Feb-21 21:39 34.097736 -117.233130 250 1134ft 10kts
21-Feb-21 21:40 34.096584 -117.237068 248 1122ft 13kts
21-Feb-21 21:41 34.095070 -117.242173 250 1103ft 18kts
21-Feb-21 21:42 34.093594 -117.247160 250 1098ft 13kts
21-Feb-21 21:43 34.092596 -117.250506 247 1089ft 8kts
21-Feb-21 21:44 34.091607 -117.250835 157 1086ft 0kts
21-Feb-21 21:45 34.091607 -117.250835 157 1086ft 0kts
21-Feb-21 21:46 34.091607 -117.250835 157 1086ft 0kts
21-Feb-21 21:47 34.091607 -117.250835 157 1086ft 0kts
21-Feb-21 21:48 34.094682 -117.235305 76 1373ft 79kts
21-Feb-21 21:49 34.106385 -117.221478 336 2078ft 87kts
21-Feb-21 21:50 34.123504 -117.245221 265 2174ft 111kts
21-Feb-21 21:51 34.114688 -117.281454 262 2289ft 114kts
21-Feb-21 21:52 34.111141 -117.318764 267 2509ft 112kts
21-Feb-21 21:53 34.109443 -117.356739 269 2551ft 113kts
21-Feb-21 21:54 34.107848 -117.394597 268 2555ft 114kts
21-Feb-21 21:55 34.105637 -117.432802 269 2552ft 114kts
21-Feb-21 21:56 34.104029 -117.470917 269 2542ft 114kts
21-Feb-21 21:57 34.102334 -117.491933 265 2537ft 114kts
21-Feb-21 21:58 34.121907 -117.499674 65 2435ft 107kts
21-Feb-21 21:59 34.103133 -117.483087 213 2441ft 115kts
21-Feb-21 22:00 34.094501 -117.518058 269 2506ft 111kts
21-Feb-21 22:01 34.094155 -117.555259 271 2558ft 111kts
21-Feb-21 22:02 34.092765 -117.592785 274 2586ft 112kts
21-Feb-21 22:03 34.095197 -117.629949 277 2613ft 111kts
21-Feb-21 22:04 34.094928 -117.667559 269 2618ft 112kts
21-Feb-21 22:05 34.095624 -117.705404 276 2593ft 113kts
21-Feb-21 22:06 34.096157 -117.743460 274 2575ft 113kts
21-Feb-21 22:07 34.098664 -117.781174 278 2549ft 113kts
21-Feb-21 22:08 34.100297 -117.819177 270 2545ft 113kts
21-Feb-21 22:09 34.095501 -117.855811 265 2528ft 114kts
21-Feb-21 22:10 34.092526 -117.893472 270 2543ft 113kts
21-Feb-21 22:11 34.089929 -117.927424 271 2541ft 113kts
21-Feb-21 22:12 34.092926 -117.964535 281 2450ft 113kts
21-Feb-21 22:13 34.099509 -117.998524 286 1959ft 96kts
21-Feb-21 22:14 34.100040 -118.025263 241 932ft 80kts
21-Feb-21 22:15 34.085916 -118.034790 190 298ft 20kts
21-Feb-21 22:16 34.085369 -118.034663 113 298ft 0kts
21-Feb-21 22:17 34.085413 -118.033246 20 295ft 0kts
21-Feb-21 22:18 34.085413 -118.033246 20 295ft 0kts
21-Feb-21 22:19 0.000408 0.013975 0 3ft 0kts

Navigation Log

Ident Type
Flight plan parsing failed, navigation log unavailable